createdAt,value
2022-10-01T00:06:23.291Z,6.759197324414716
2022-10-01T00:15:13.705Z,6.913043478260869
2022-10-01T00:22:00.438Z,6.645484949832776
2022-10-01T00:35:17.425Z,7.785953177257525
2022-10-01T00:41:46.433Z,7.040133779264214
2022-10-01T00:53:54.561Z,6.521739130434782
2022-10-01T01:00:22.675Z,6.508361204013378
2022-10-01T01:09:13.819Z,6.802675585284281
2022-10-01T01:21:34.545Z,7.749163879598663
2022-10-01T01:28:02.272Z,7.451505016722408
2022-10-01T01:34:30.694Z,7.0
2022-10-01T01:45:46.745Z,6.953177257525083
2022-10-01T01:55:41.664Z,6.635451505016722
2022-10-01T02:02:10.239Z,6.698996655518394
2022-10-01T02:08:38.281Z,7.2207357859531776
2022-10-01T02:15:05.842Z,8.461538461538462
2022-10-01T02:21:34.305Z,8.909698996655518
2022-10-01T02:31:19.768Z,8.264214046822742
2022-10-01T02:43:25.241Z,9.311036789297658
2022-10-01T02:52:21.157Z,9.695652173913043
2022-10-01T03:01:37.151Z,9.779264214046822
2022-10-01T03:08:04.150Z,10.923076923076923
2022-10-01T03:14:31.998Z,10.31438127090301
2022-10-01T03:20:59.137Z,10.545150501672241
2022-10-01T03:27:35.278Z,10.588628762541806
2022-10-01T03:34:03.163Z,11.364548494983278
2022-10-01T03:40:31.228Z,12.180602006688963
2022-10-01T03:46:59.360Z,11.036789297658864
2022-10-01T03:53:27.211Z,11.505016722408026
2022-10-01T03:59:55.008Z,11.324414715719064
2022-10-01T04:06:23.992Z,11.334448160535118
2022-10-01T04:17:45.720Z,10.538461538461538
2022-10-01T04:24:14.529Z,10.561872909698996
2022-10-01T04:30:42.523Z,10.120401337792643
2022-10-01T04:37:09.912Z,9.989966555183946
2022-10-01T04:43:38.477Z,9.735785953177258
2022-10-01T04:53:03.958Z,9.561872909698996
2022-10-01T04:59:32.160Z,8.668896321070234
2022-10-01T05:05:59.913Z,9.31772575250836
2022-10-01T05:12:29.084Z,8.270903010033445
2022-10-01T05:18:57.099Z,7.662207357859532
2022-10-01T05:25:25.674Z,7.130434782608695
2022-10-01T05:31:55.207Z,6.618729096989966
2022-10-01T05:38:25.078Z,5.892976588628763
2022-10-01T05:44:52.465Z,6.5719063545150505
2022-10-01T05:51:20.424Z,6.411371237458194
2022-10-01T05:57:48.168Z,6.872909698996655
2022-10-01T06:04:15.296Z,6.478260869565218
2022-10-01T06:10:44.144Z,6.608695652173913
2022-10-01T06:17:11.966Z,5.551839464882943
2022-10-01T06:23:50.657Z,6.214046822742475
2022-10-01T06:30:18.737Z,5.331103678929765
2022-10-01T06:39:49.913Z,4.043478260869565
2022-10-01T06:50:47.707Z,4.498327759197324
2022-10-01T06:57:15.802Z,4.046822742474917
2022-10-01T07:03:43.931Z,4.003344481605351
2022-10-01T07:10:11.147Z,3.4247491638795986
2022-10-01T07:21:25.490Z,2.8862876254180603
2022-10-01T07:27:59.562Z,2.919732441471572
2022-10-01T07:34:28.934Z,3.4782608695652173
2022-10-01T07:40:59.916Z,2.819397993311037
2022-10-01T07:47:29.666Z,2.745819397993311
2022-10-01T07:53:58.917Z,3.57190635451505
2022-10-01T08:00:28.123Z,3.5652173913043477
2022-10-01T08:06:55.584Z,4.448160535117057
2022-10-01T08:18:52.239Z,4.996655518394649
2022-10-01T08:25:27.849Z,5.79933110367893
2022-10-01T08:31:55.480Z,7.62876254180602
2022-10-01T08:38:23.342Z,7.190635451505017
2022-10-01T08:44:51.202Z,7.404682274247492
2022-10-01T08:51:19.713Z,7.775919732441472
2022-10-01T09:04:22.414Z,8.331103678929766
2022-10-01T09:10:53.446Z,8.387959866220736
2022-10-01T09:17:22.077Z,8.946488294314381
2022-10-01T09:23:55.919Z,9.240802675585284
2022-10-01T09:30:30.382Z,9.147157190635452
2022-10-01T09:37:13.737Z,9.91304347826087
2022-10-01T09:43:46.089Z,10.357859531772576
2022-10-01T09:55:44.879Z,9.705685618729097
2022-10-01T10:02:15.637Z,9.591973244147157
2022-10-01T10:08:46.427Z,10.505016722408026
2022-10-01T10:15:16.878Z,9.688963210702342
2022-10-01T10:21:47.538Z,9.588628762541806
2022-10-01T10:28:22.804Z,9.267558528428093
2022-10-01T10:34:57.025Z,9.157190635451505
2022-10-01T10:41:33.198Z,9.207357859531772
2022-10-01T10:50:35.465Z,10.635451505016722
2022-10-01T10:57:05.140Z,8.638795986622073
2022-10-01T11:03:43.724Z,8.578595317725753
2022-10-01T11:10:13.893Z,7.575250836120401
2022-10-01T11:16:45.671Z,8.010033444816054
2022-10-01T11:23:14.977Z,7.451505016722408
2022-10-01T11:35:54.599Z,6.729096989966555
2022-10-01T11:42:25.050Z,5.8193979933110365
2022-10-01T11:53:06.008Z,5.374581939799331
2022-10-01T12:01:37.980Z,5.096989966555184
2022-10-01T12:08:08.606Z,5.107023411371237
2022-10-01T12:16:19.089Z,4.946488294314381
2022-10-01T12:24:44.823Z,3.632107023411371
2022-10-01T12:35:34.146Z,5.287625418060201
2022-10-01T12:42:03.883Z,3.94314381270903
2022-10-01T12:48:37.419Z,5.1806020066889635
2022-10-01T12:59:15.608Z,0.5719063545150501
2022-10-01T13:05:46.560Z,0.2140468227424749
2022-10-01T13:13:07.767Z,0.3879598662207358
2022-10-01T13:19:37.893Z,0.6020066889632107
2022-10-01T13:26:08.287Z,0.20735785953177258
2022-10-01T13:38:30.812Z,0.5652173913043478
2022-10-01T13:45:01.109Z,0.5117056856187291
2022-10-01T13:55:11.357Z,0.05351170568561873
2022-10-01T14:01:44.319Z,0.5785953177257525
2022-10-01T14:13:15.640Z,0.4214046822742475
2022-10-01T14:19:47.008Z,0.42474916387959866
2022-10-01T14:26:21.417Z,0.7591973244147158
2022-10-01T14:32:52.790Z,0.5785953177257525
2022-10-01T14:39:24.225Z,0.5551839464882943
2022-10-01T14:45:56.880Z,0.5953177257525084
2022-10-01T14:52:28.250Z,0.7023411371237458
2022-10-01T15:04:37.457Z,0.6722408026755853
2022-10-01T15:11:08.495Z,0.8327759197324415
2022-10-01T15:17:37.660Z,0.7424749163879598
2022-10-01T15:24:07.915Z,0.725752508361204
2022-10-01T15:30:40.210Z,0.8193979933110368
2022-10-01T15:37:08.755Z,0.5016722408026756
2022-10-01T15:43:40.819Z,0.9464882943143813
2022-10-01T15:50:16.008Z,1.3846153846153846
2022-10-01T15:56:50.245Z,1.882943143812709
2022-10-01T16:03:20.082Z,1.3311036789297659
2022-10-01T16:09:47.889Z,2.020066889632107
2022-10-01T16:16:16.312Z,1.605351170568562
2022-10-01T16:26:53.190Z,1.6688963210702341
2022-10-01T16:33:21.109Z,1.9230769230769231
2022-10-01T16:39:49.081Z,1.9230769230769231
2022-10-01T16:49:02.150Z,1.7826086956521738
2022-10-01T16:57:10.324Z,2.1237458193979935
2022-10-01T17:03:38.399Z,1.6555183946488294
2022-10-01T17:10:06.108Z,3.939799331103679
2022-10-01T17:16:34.763Z,2.120401337792642
2022-10-01T17:23:03.897Z,1.5418060200668897
2022-10-01T17:29:32.890Z,1.2876254180602007
2022-10-01T17:36:01.341Z,1.5016722408026757
2022-10-01T17:42:31.073Z,1.7324414715719063
2022-10-01T17:48:58.946Z,1.9832775919732442
2022-10-01T17:55:27.487Z,4.60200668896321
2022-10-01T18:01:56.009Z,4.735785953177258
2022-10-01T18:12:44.512Z,3.9464882943143813
2022-10-01T18:19:52.385Z,3.6020066889632107
2022-10-01T18:26:21.309Z,3.7725752508361206
2022-10-01T18:32:51.789Z,2.2474916387959865
2022-10-01T18:42:01.965Z,4.016722408026756
2022-10-01T18:56:58.844Z,3.9732441471571907
2022-10-01T19:15:36.188Z,3.431438127090301
2022-10-01T19:32:09.228Z,3.759197324414716
2022-10-01T19:49:41.214Z,3.6555183946488294
2022-10-01T20:10:40.592Z,4.518394648829432
2022-10-01T20:42:01.786Z,3.7324414715719065
2022-10-01T21:13:41.148Z,3.7959866220735785
2022-10-01T21:31:00.375Z,3.6421404682274248
2022-10-01T21:55:33.162Z,3.3745819397993313
2022-10-01T22:23:07.468Z,3.749163879598662
2022-10-01T22:41:50.621Z,2.3779264214046822
2022-10-01T22:57:08.862Z,2.8461538461538463
2022-10-01T23:04:33.289Z,2.8862876254180603
2022-10-01T23:12:48.098Z,2.668896321070234
2022-10-01T23:19:15.212Z,2.250836120401338
2022-10-01T23:25:46.707Z,2.4180602006688963
2022-10-01T23:32:14.715Z,2.5785953177257523
2022-10-01T23:38:41.523Z,2.9331103678929766
2022-10-01T23:56:50.621Z,2.31438127090301
